createdAt,value
2019-01-12T00:01:03.164Z,1.64
2019-01-12T00:03:33.328Z,1.58
2019-01-12T00:06:04.027Z,1.69
2019-01-12T00:08:33.279Z,1.64
2019-01-12T00:11:02.816Z,1.71
2019-01-12T00:13:32.083Z,1.62
2019-01-12T00:16:01.296Z,1.56
2019-01-12T00:18:30.560Z,1.64
2019-01-12T00:21:00.115Z,1.65
2019-01-12T00:23:30.853Z,1.59
2019-01-12T00:26:00.125Z,1.61
2019-01-12T00:28:29.410Z,1.56
2019-01-12T00:30:58.662Z,1.62
2019-01-12T00:33:27.905Z,1.60
2019-01-12T00:35:57.166Z,1.66
2019-01-12T00:38:26.654Z,1.71
2019-01-12T00:40:57.589Z,1.78
2019-01-12T00:43:26.866Z,1.75
2019-01-12T00:45:56.129Z,1.79
2019-01-12T00:48:25.361Z,1.67
2019-01-12T00:50:54.632Z,1.73
2019-01-12T00:53:23.874Z,1.75
2019-01-12T00:55:53.133Z,1.76
2019-01-12T00:58:22.391Z,1.76
2019-01-12T01:00:51.633Z,1.77
2019-01-12T01:03:20.860Z,1.75
2019-01-12T01:05:50.120Z,1.78
2019-01-12T01:08:19.346Z,1.79
2019-01-12T01:10:48.632Z,1.85
2019-01-12T01:13:19.264Z,1.83
2019-01-12T01:15:48.607Z,1.94
2019-01-12T01:18:17.933Z,1.95
2019-01-12T01:20:48.025Z,2.00
2019-01-12T01:23:17.239Z,2.04
2019-01-12T01:25:46.798Z,2.07
2019-01-12T01:28:16.100Z,2.10
2019-01-12T01:30:46.168Z,1.98
2019-01-12T01:33:15.688Z,2.04
2019-01-12T01:35:45.150Z,1.91
2019-01-12T01:38:14.406Z,1.78
2019-01-12T01:40:43.960Z,1.77
2019-01-12T01:43:13.607Z,1.77
2019-01-12T01:45:43.642Z,1.85
2019-01-12T01:48:13.791Z,1.82
2019-01-12T01:50:43.279Z,1.69
2019-01-12T01:53:12.578Z,1.73
2019-01-12T01:55:41.801Z,1.68
2019-01-12T01:58:11.883Z,1.68
2019-01-12T02:00:41.732Z,1.64
2019-01-12T02:03:11.741Z,1.76
2019-01-12T02:05:41.464Z,1.82
2019-01-12T02:08:10.930Z,1.84
2019-01-12T02:10:40.182Z,1.86
2019-01-12T02:13:09.716Z,1.84
2019-01-12T02:15:40.650Z,1.88
2019-01-12T02:18:09.915Z,1.87
2019-01-12T02:20:39.140Z,1.87
2019-01-12T02:23:08.397Z,1.93
2019-01-12T02:25:37.639Z,1.84
2019-01-12T02:28:06.891Z,1.85
2019-01-12T02:30:36.139Z,1.77
2019-01-12T02:33:05.503Z,1.73
2019-01-12T02:35:35.121Z,1.77
2019-01-12T02:38:04.927Z,1.81
2019-01-12T02:40:34.473Z,1.85
2019-01-12T02:43:03.732Z,1.90
2019-01-12T02:45:34.087Z,1.85
2019-01-12T02:48:03.669Z,1.88
2019-01-12T02:50:32.923Z,1.88
2019-01-12T02:53:02.455Z,1.84
2019-01-12T02:55:31.993Z,1.96
2019-01-12T02:58:01.256Z,2.01
2019-01-12T03:00:30.771Z,1.92
2019-01-12T03:03:00.300Z,1.93
2019-01-12T03:05:30.331Z,1.97
2019-01-12T03:08:01.540Z,1.91
2019-01-12T03:10:30.770Z,1.87
2019-01-12T03:13:00.422Z,1.93
2019-01-12T03:15:29.651Z,1.94
2019-01-12T03:17:58.931Z,1.98
2019-01-12T03:20:28.172Z,1.99
2019-01-12T03:22:57.411Z,1.98
2019-01-12T03:25:26.641Z,1.98
2019-01-12T03:27:55.902Z,2.02
2019-01-12T03:30:25.447Z,1.98
2019-01-12T03:32:56.364Z,1.91
2019-01-12T03:35:25.976Z,1.96
2019-01-12T03:37:58.681Z,1.90
2019-01-12T03:40:27.923Z,1.85
2019-01-12T03:42:58.486Z,1.84
2019-01-12T03:45:27.748Z,1.76
2019-01-12T03:47:57.145Z,1.82
2019-01-12T03:50:27.339Z,1.73
2019-01-12T03:52:58.838Z,1.71
2019-01-12T03:55:30.328Z,1.76
2019-01-12T03:57:59.964Z,1.80
2019-01-12T04:00:29.496Z,1.78
2019-01-12T04:02:59.899Z,1.79
2019-01-12T04:05:30.494Z,1.80
2019-01-12T04:08:00.846Z,1.76
2019-01-12T04:10:30.120Z,1.76
2019-01-12T04:13:00.956Z,1.80
2019-01-12T04:15:31.811Z,1.78
2019-01-12T04:18:01.868Z,1.71
2019-01-12T04:20:32.292Z,1.82
2019-01-12T04:23:04.430Z,1.76
2019-01-12T04:25:34.634Z,1.78
2019-01-12T04:28:04.159Z,1.88
2019-01-12T04:30:34.785Z,1.82
2019-01-12T04:33:06.157Z,1.72
2019-01-12T04:35:36.517Z,1.78
2019-01-12T04:38:06.031Z,1.83
2019-01-12T04:40:35.931Z,1.83
2019-01-12T04:43:05.270Z,1.84
2019-01-12T04:45:34.809Z,1.80
2019-01-12T04:48:04.069Z,1.83
2019-01-12T04:50:36.416Z,1.93
2019-01-12T04:53:08.656Z,2.11
2019-01-12T04:55:41.844Z,2.14
2019-01-12T04:58:14.112Z,2.26
2019-01-12T05:00:44.983Z,2.38
2019-01-12T05:03:14.633Z,2.56
2019-01-12T05:05:43.901Z,2.61
2019-01-12T05:08:13.722Z,2.41
2019-01-12T05:10:43.172Z,2.48
2019-01-12T05:13:12.833Z,2.33
2019-01-12T05:15:42.383Z,2.25
2019-01-12T05:18:13.654Z,2.35
2019-01-12T05:20:44.801Z,2.47
2019-01-12T05:23:14.887Z,2.73
2019-01-12T05:25:48.910Z,2.98
2019-01-12T05:28:16.220Z,3.25
2019-01-12T05:30:47.359Z,3.42
2019-01-12T05:33:16.903Z,3.65
2019-01-12T05:35:46.152Z,3.63
2019-01-12T05:38:17.706Z,3.76
2019-01-12T05:40:47.789Z,3.87
2019-01-12T05:43:17.003Z,3.93
2019-01-12T05:45:46.530Z,3.99
2019-01-12T05:48:16.086Z,4.11
2019-01-12T05:50:58.208Z,4.16
2019-01-12T05:53:28.887Z,4.09
2019-01-12T05:55:59.220Z,4.12
2019-01-12T05:58:32.324Z,4.22
2019-01-12T06:01:02.832Z,4.23
2019-01-12T06:03:33.623Z,4.24
2019-01-12T06:06:03.474Z,4.27
2019-01-12T06:08:33.184Z,4.21
2019-01-12T06:11:02.826Z,4.14
2019-01-12T06:13:32.046Z,4.28
2019-01-12T06:16:01.589Z,4.27
2019-01-12T06:18:30.823Z,4.23
2019-01-12T06:21:00.298Z,4.27
2019-01-12T06:23:29.971Z,4.22
2019-01-12T06:26:03.786Z,4.20
2019-01-12T06:28:45.544Z,4.14
2019-01-12T06:31:16.250Z,4.16
2019-01-12T06:34:17.350Z,4.15
2019-01-12T06:36:55.029Z,4.27
2019-01-12T06:39:26.773Z,4.29
2019-01-12T06:42:00.561Z,4.38
2019-01-12T06:44:37.530Z,4.37
2019-01-12T06:47:11.341Z,4.29
2019-01-12T06:49:43.012Z,4.34
2019-01-12T06:52:12.269Z,4.30
2019-01-12T06:54:41.696Z,4.25
2019-01-12T06:57:11.414Z,4.24
2019-01-12T06:59:41.250Z,4.27
2019-01-12T07:02:11.981Z,4.20
2019-01-12T07:04:41.606Z,4.21
2019-01-12T07:07:11.222Z,4.21
2019-01-12T07:09:41.172Z,4.25
2019-01-12T07:12:11.325Z,4.28
2019-01-12T07:14:40.595Z,4.20
2019-01-12T07:17:09.830Z,4.17
2019-01-12T07:19:39.093Z,4.19
2019-01-12T07:22:10.442Z,4.13
2019-01-12T07:24:41.724Z,4.20
2019-01-12T07:27:26.246Z,4.23
2019-01-12T07:30:20.698Z,4.25
2019-01-12T07:32:55.569Z,4.25
2019-01-12T07:35:33.184Z,4.33
2019-01-12T07:41:04.516Z,4.28
2019-01-12T07:43:35.907Z,4.35
2019-01-12T07:46:11.637Z,4.31
2019-01-12T07:48:42.587Z,4.33
2019-01-12T07:51:18.469Z,4.37
2019-01-12T07:53:59.238Z,4.42
2019-01-12T07:56:35.116Z,4.42
2019-01-12T07:59:29.319Z,4.36
2019-01-12T08:02:18.266Z,4.34
2019-01-12T08:05:06.917Z,4.37
2019-01-12T08:07:53.984Z,4.35
2019-01-12T08:10:27.806Z,4.40
2019-01-12T08:12:59.123Z,4.42
2019-01-12T08:15:30.540Z,4.40
2019-01-12T08:18:01.401Z,4.46
2019-01-12T08:20:30.672Z,4.46
2019-01-12T08:23:03.523Z,4.46
2019-01-12T08:25:32.813Z,4.44
2019-01-12T08:28:02.052Z,4.45
2019-01-12T08:30:51.343Z,4.50
2019-01-12T08:33:31.706Z,4.47
2019-01-12T08:36:17.263Z,4.50
2019-01-12T08:39:01.439Z,4.55
2019-01-12T08:41:36.276Z,4.52
2019-01-12T08:44:07.131Z,4.53
2019-01-12T08:46:39.695Z,4.56
2019-01-12T08:49:09.938Z,4.55
2019-01-12T08:51:39.270Z,4.62
2019-01-12T08:54:16.634Z,4.60
2019-01-12T08:56:46.509Z,4.64
2019-01-12T08:59:16.432Z,4.59
2019-01-12T09:01:45.787Z,4.59
2019-01-12T09:04:15.421Z,4.66
2019-01-12T09:06:45.825Z,4.64
2019-01-12T09:09:21.451Z,4.63
2019-01-12T09:11:52.509Z,4.64
2019-01-12T09:14:26.983Z,4.64
2019-01-12T09:16:56.431Z,4.66
2019-01-12T09:19:31.647Z,4.59
2019-01-12T09:22:01.086Z,4.66
2019-01-12T09:24:31.981Z,4.63
2019-01-12T09:27:01.248Z,4.53
2019-01-12T09:29:38.190Z,4.49
2019-01-12T09:32:07.875Z,4.46
2019-01-12T09:34:38.260Z,4.41
2019-01-12T09:37:07.635Z,4.46
2019-01-12T09:39:39.353Z,4.45
2019-01-12T09:42:09.856Z,4.45
2019-01-12T09:44:39.714Z,4.35
2019-01-12T09:47:13.226Z,4.35
2019-01-12T09:49:42.551Z,4.45
2019-01-12T09:52:13.232Z,4.38
2019-01-12T09:54:44.165Z,4.35
2019-01-12T09:57:18.726Z,4.36
2019-01-12T09:59:48.517Z,4.31
2019-01-12T10:02:18.069Z,4.39
2019-01-12T10:04:47.796Z,4.29
2019-01-12T10:07:17.453Z,4.33
2019-01-12T10:09:47.439Z,4.42
2019-01-12T10:12:30.153Z,4.33
2019-01-12T10:14:59.993Z,4.34
2019-01-12T10:17:54.255Z,4.37
2019-01-12T10:20:25.108Z,4.40
2019-01-12T10:22:54.748Z,4.45
2019-01-12T10:25:23.995Z,4.49
2019-01-12T10:27:58.352Z,4.51
2019-01-12T10:30:35.715Z,4.46
2019-01-12T10:33:06.901Z,4.43
2019-01-12T10:35:44.438Z,4.56
2019-01-12T10:38:16.888Z,4.56
2019-01-12T10:40:46.165Z,4.60
2019-01-12T10:43:15.452Z,4.49
2019-01-12T10:45:45.356Z,4.47
2019-01-12T10:48:14.952Z,4.52
2019-01-12T10:50:45.696Z,4.47
2019-01-12T10:53:15.906Z,4.45
2019-01-12T10:55:45.450Z,4.45
2019-01-12T10:58:15.738Z,4.49
2019-01-12T11:00:45.806Z,4.45
2019-01-12T11:03:15.724Z,4.46
2019-01-12T11:05:44.950Z,4.43
2019-01-12T11:08:14.228Z,4.36
2019-01-12T11:10:43.852Z,4.38
2019-01-12T11:13:13.884Z,4.35
2019-01-12T11:15:44.260Z,4.30
2019-01-12T11:18:16.299Z,4.31
2019-01-12T11:20:45.555Z,4.35
2019-01-12T11:23:15.813Z,4.25
2019-01-12T11:25:45.919Z,4.29
2019-01-12T11:28:18.812Z,4.27
2019-01-12T11:30:48.963Z,4.29
2019-01-12T11:33:18.487Z,4.30
2019-01-12T11:35:47.786Z,4.31
2019-01-12T11:38:25.562Z,4.35
2019-01-12T11:41:04.377Z,4.35
2019-01-12T11:43:37.072Z,4.30
2019-01-12T11:46:06.810Z,4.34
2019-01-12T11:48:38.012Z,4.30
2019-01-12T11:51:07.514Z,4.28
2019-01-12T11:53:49.064Z,4.30
2019-01-12T11:56:20.047Z,4.36
2019-01-12T11:59:06.493Z,4.31
2019-01-12T12:01:38.770Z,4.27
2019-01-12T12:04:09.695Z,4.24
2019-01-12T12:06:39.851Z,4.23
2019-01-12T12:09:09.574Z,4.23
2019-01-12T12:11:39.203Z,4.28
2019-01-12T12:14:09.683Z,4.25
2019-01-12T12:16:39.766Z,4.24
2019-01-12T12:19:09.868Z,4.21
2019-01-12T12:21:40.935Z,4.25
2019-01-12T12:24:35.511Z,4.19
2019-01-12T12:27:10.271Z,4.28
2019-01-12T12:29:39.859Z,4.21
2019-01-12T12:32:09.817Z,4.19
2019-01-12T12:34:41.909Z,4.22
2019-01-12T12:37:11.516Z,4.17
2019-01-12T12:39:43.105Z,4.23
2019-01-12T12:42:14.112Z,4.20
2019-01-12T12:44:46.512Z,4.22
2019-01-12T12:47:16.072Z,4.28
2019-01-12T12:49:46.149Z,4.20
2019-01-12T12:52:16.010Z,4.22
2019-01-12T12:54:45.251Z,4.15
2019-01-12T12:57:15.656Z,4.23
2019-01-12T12:59:44.954Z,4.16
2019-01-12T13:02:17.796Z,4.18
2019-01-12T13:04:48.219Z,4.16
2019-01-12T13:07:21.092Z,4.24
2019-01-12T13:09:50.948Z,4.26
2019-01-12T13:12:23.745Z,4.25
2019-01-12T13:14:53.571Z,4.26
2019-01-12T13:17:23.864Z,4.24
2019-01-12T13:19:53.127Z,4.22
2019-01-12T13:22:22.967Z,4.23
2019-01-12T13:24:52.996Z,4.23
2019-01-12T13:27:24.383Z,4.29
2019-01-12T13:29:55.472Z,4.27
2019-01-12T13:32:25.030Z,4.25
2019-01-12T13:34:56.154Z,4.23
2019-01-12T13:37:26.992Z,4.28
2019-01-12T13:39:57.112Z,4.33
2019-01-12T13:42:27.684Z,4.33
2019-01-12T13:45:01.773Z,4.38
2019-01-12T13:47:33.327Z,4.34
2019-01-12T13:50:04.007Z,4.29
2019-01-12T13:52:48.908Z,4.31
2019-01-12T13:55:21.293Z,4.30
2019-01-12T13:58:03.286Z,4.29
2019-01-12T14:00:38.426Z,4.27
2019-01-12T14:03:10.897Z,4.32
2019-01-12T14:05:43.268Z,4.28
2019-01-12T14:08:15.795Z,4.29
2019-01-12T14:10:56.155Z,4.33
2019-01-12T14:13:32.890Z,4.30
2019-01-12T14:16:02.220Z,4.35
2019-01-12T14:18:31.792Z,4.41
2019-01-12T14:21:01.953Z,4.37
2019-01-12T14:23:31.217Z,4.42
2019-01-12T14:26:00.554Z,4.39
2019-01-12T14:28:32.777Z,4.48
2019-01-12T14:31:02.965Z,4.37
2019-01-12T14:33:36.227Z,4.41
2019-01-12T14:36:09.236Z,4.47
2019-01-12T14:38:39.715Z,4.42
2019-01-12T14:41:08.967Z,4.45
2019-01-12T14:43:38.198Z,4.44
2019-01-12T14:46:07.800Z,4.41
2019-01-12T14:48:37.385Z,4.45
2019-01-12T14:51:07.319Z,4.43
2019-01-12T14:53:38.203Z,4.42
2019-01-12T14:56:08.948Z,4.39
2019-01-12T14:58:39.095Z,4.41
2019-01-12T15:01:12.434Z,4.36
2019-01-12T15:03:41.679Z,4.31
2019-01-12T15:06:11.219Z,4.31
2019-01-12T15:08:43.408Z,4.32
2019-01-12T15:11:13.035Z,4.27
2019-01-12T15:13:42.566Z,4.33
2019-01-12T15:16:14.579Z,4.31
2019-01-12T15:18:44.244Z,4.36
2019-01-12T15:21:15.017Z,4.35
2019-01-12T15:23:44.920Z,4.35
2019-01-12T15:26:21.500Z,4.36
2019-01-12T15:29:00.303Z,4.37
2019-01-12T15:31:34.218Z,4.36
2019-01-12T15:34:10.171Z,4.38
2019-01-12T15:36:42.668Z,4.39
2019-01-12T15:39:23.953Z,4.45
2019-01-12T15:41:54.141Z,4.37
2019-01-12T15:44:31.259Z,4.39
2019-01-12T15:47:00.926Z,4.38
2019-01-12T15:49:30.465Z,4.41
2019-01-12T15:52:00.286Z,4.45
2019-01-12T15:54:30.049Z,4.46
2019-01-12T15:56:59.754Z,4.45
2019-01-12T15:59:29.925Z,4.46
2019-01-12T16:01:59.267Z,4.52
2019-01-12T16:04:28.810Z,4.47
2019-01-12T16:06:59.057Z,4.46
2019-01-12T16:09:39.472Z,4.43
2019-01-12T16:12:12.954Z,4.50
2019-01-12T16:14:42.538Z,4.46
2019-01-12T16:17:11.809Z,4.49
2019-01-12T16:19:41.099Z,4.54
2019-01-12T16:22:10.358Z,4.51
2019-01-12T16:24:50.086Z,4.50
2019-01-12T16:27:24.134Z,4.52
2019-01-12T16:30:17.410Z,4.50
2019-01-12T16:32:48.062Z,4.53
2019-01-12T16:35:17.942Z,4.51
2019-01-12T16:37:47.376Z,4.54
2019-01-12T16:40:21.652Z,4.51
2019-01-12T16:42:51.376Z,4.54
2019-01-12T16:45:20.604Z,4.53
2019-01-12T16:47:50.114Z,4.53
2019-01-12T16:50:21.164Z,4.53
2019-01-12T16:52:50.819Z,4.53
2019-01-12T16:55:20.836Z,4.56
2019-01-12T16:57:52.274Z,4.58
2019-01-12T17:00:24.500Z,4.60
2019-01-12T17:02:55.882Z,4.61
2019-01-12T17:05:50.736Z,4.68
2019-01-12T17:08:20.864Z,4.67
2019-01-12T17:10:54.141Z,4.67
2019-01-12T17:13:40.749Z,4.67
2019-01-12T17:16:10.550Z,4.67
2019-01-12T17:18:43.593Z,4.72
2019-01-12T17:21:14.152Z,4.69
2019-01-12T17:23:45.239Z,4.72
2019-01-12T17:26:15.466Z,4.71
2019-01-12T17:28:45.172Z,4.73
2019-01-12T17:31:15.195Z,4.70
2019-01-12T17:33:44.468Z,4.70
2019-01-12T17:36:20.172Z,4.69
2019-01-12T17:38:50.015Z,4.70
2019-01-12T17:41:19.230Z,4.76
2019-01-12T17:44:02.682Z,4.68
2019-01-12T17:46:32.229Z,4.66
2019-01-12T17:49:07.847Z,4.69
2019-01-12T17:51:37.964Z,4.70
2019-01-12T17:54:07.619Z,4.65
2019-01-12T17:56:40.175Z,4.69
2019-01-12T17:59:27.632Z,4.66
2019-01-12T18:01:58.391Z,4.67
2019-01-12T18:04:27.813Z,4.72
2019-01-12T18:06:57.278Z,4.74
2019-01-12T18:09:27.472Z,4.73
2019-01-12T18:11:57.116Z,4.74
2019-01-12T18:14:28.558Z,4.74
2019-01-12T18:17:01.413Z,4.80
2019-01-12T18:19:30.666Z,4.75
2019-01-12T18:22:01.742Z,4.77
2019-01-12T18:24:35.441Z,4.75
2019-01-12T18:27:05.078Z,4.83
2019-01-12T18:29:34.651Z,4.84
2019-01-12T18:32:04.968Z,4.83
2019-01-12T18:34:35.458Z,4.83
2019-01-12T18:37:05.303Z,4.84
2019-01-12T18:39:35.894Z,4.84
2019-01-12T18:42:05.294Z,4.88
2019-01-12T18:44:36.715Z,4.85
2019-01-12T18:47:06.389Z,4.86
2019-01-12T18:49:36.224Z,4.91
2019-01-12T18:52:05.682Z,4.93
2019-01-12T18:54:36.450Z,4.99
2019-01-12T18:57:09.279Z,5.01
2019-01-12T18:59:38.751Z,4.95
2019-01-12T19:02:10.873Z,4.89
2019-01-12T19:04:40.417Z,4.91
2019-01-12T19:07:10.755Z,4.95
2019-01-12T19:09:40.232Z,4.96
2019-01-12T19:12:16.517Z,4.95
2019-01-12T19:14:46.695Z,4.93
2019-01-12T19:17:18.872Z,4.97
2019-01-12T19:19:51.760Z,4.91
2019-01-12T19:22:21.920Z,4.94
2019-01-12T19:24:51.969Z,5.01
2019-01-12T19:27:21.256Z,5.00
2019-01-12T19:29:50.498Z,5.09
2019-01-12T19:32:19.952Z,4.98
2019-01-12T19:34:49.728Z,4.95
2019-01-12T19:37:39.566Z,4.92
2019-01-12T19:40:12.714Z,4.97
2019-01-12T19:43:03.582Z,5.08
2019-01-12T19:45:40.881Z,5.03
2019-01-12T19:48:11.745Z,5.02
2019-01-12T19:50:43.401Z,5.03
2019-01-12T19:53:13.826Z,5.09
2019-01-12T19:55:46.801Z,5.04
2019-01-12T19:58:16.070Z,4.95
2019-01-12T20:00:47.396Z,4.97
2019-01-12T20:03:16.961Z,5.01
2019-01-12T20:05:47.441Z,5.01
2019-01-12T20:08:17.019Z,5.02
2019-01-12T20:10:46.279Z,5.01
2019-01-12T20:13:22.186Z,5.04
2019-01-12T20:15:51.953Z,5.10
2019-01-12T20:18:21.400Z,5.06
2019-01-12T20:20:51.520Z,5.13
2019-01-12T20:23:25.223Z,5.14
2019-01-12T20:25:59.988Z,5.08
2019-01-12T20:28:30.401Z,5.17
2019-01-12T20:31:36.877Z,5.23
2019-01-12T20:34:23.250Z,5.26
2019-01-12T20:37:48.565Z,5.20
2019-01-12T20:41:03.452Z,5.21
2019-01-12T20:44:20.697Z,5.22
2019-01-12T20:47:26.475Z,5.21
2019-01-12T20:50:20.932Z,5.20
2019-01-12T20:53:55.297Z,5.16
2019-01-12T20:56:42.941Z,5.20
2019-01-12T20:59:43.123Z,5.19
2019-01-12T21:02:39.822Z,5.22
2019-01-12T21:06:23.143Z,5.22
2019-01-12T21:09:28.688Z,5.18
2019-01-12T21:12:49.044Z,5.30
2019-01-12T21:15:31.781Z,5.31
2019-01-12T21:18:04.112Z,5.22
2019-01-12T21:20:38.716Z,5.25
2019-01-12T21:23:08.156Z,5.19
2019-01-12T21:25:38.926Z,5.22
2019-01-12T21:28:09.038Z,5.18
2019-01-12T21:30:38.830Z,5.23
2019-01-12T21:33:09.734Z,5.20
2019-01-12T21:35:41.508Z,5.23
2019-01-12T21:38:15.150Z,5.32
2019-01-12T21:40:49.294Z,5.37
2019-01-12T21:43:27.690Z,5.42
2019-01-12T21:45:58.690Z,5.46
2019-01-12T21:48:29.991Z,5.36
2019-01-12T21:50:59.656Z,5.39
2019-01-12T21:53:31.560Z,5.42
2019-01-12T21:56:02.413Z,5.47
2019-01-12T21:58:31.738Z,5.45
2019-01-12T22:01:06.470Z,5.42
2019-01-12T22:03:36.254Z,5.45
2019-01-12T22:06:06.890Z,5.43
2019-01-12T22:08:37.614Z,5.48
2019-01-12T22:11:07.254Z,5.52
2019-01-12T22:13:36.595Z,5.52
2019-01-12T22:16:06.110Z,5.48
2019-01-12T22:18:36.500Z,5.51
2019-01-12T22:21:05.801Z,5.54
2019-01-12T22:23:36.684Z,5.51
2019-01-12T22:26:06.569Z,5.48
2019-01-12T22:28:36.602Z,5.47
2019-01-12T22:31:05.948Z,5.58
2019-01-12T22:33:35.200Z,5.66
2019-01-12T22:36:06.117Z,5.65
2019-01-12T22:38:35.637Z,5.67
2019-01-12T22:41:07.741Z,5.71
2019-01-12T22:43:39.023Z,5.72
2019-01-12T22:46:08.574Z,5.73
2019-01-12T22:48:40.027Z,5.65
2019-01-12T22:51:09.577Z,5.63
2019-01-12T22:53:39.215Z,5.59
2019-01-12T22:56:09.692Z,5.55
2019-01-12T22:58:39.966Z,5.55
2019-01-12T23:01:55.163Z,5.48
2019-01-12T23:04:26.210Z,5.50
2019-01-12T23:06:57.616Z,5.44
2019-01-12T23:09:27.454Z,5.42
2019-01-12T23:12:07.589Z,5.41
2019-01-12T23:14:37.672Z,5.44
2019-01-12T23:17:07.985Z,5.46
2019-01-12T23:19:37.475Z,5.40
2019-01-12T23:22:08.060Z,5.41
2019-01-12T23:24:37.674Z,5.36
2019-01-12T23:27:07.328Z,5.44
2019-01-12T23:29:36.858Z,5.28
2019-01-12T23:32:08.403Z,5.23
2019-01-12T23:34:37.643Z,5.27
2019-01-12T23:37:08.461Z,5.26
2019-01-12T23:39:37.700Z,5.14
2019-01-12T23:42:09.993Z,5.06
2019-01-12T23:44:39.547Z,5.10
2019-01-12T23:47:09.638Z,5.12
2019-01-12T23:49:39.208Z,5.16
2019-01-12T23:52:09.090Z,5.19
2019-01-12T23:54:38.668Z,5.21
2019-01-12T23:57:07.904Z,5.21
2019-01-12T23:59:37.160Z,5.27
